Time;durP1;ratioP1;P1;durP2;ratioP2;P2;SDS_P1;SDS_P2;PMS_P1;PMS_P2;Temp;Humidity;BMP_temperature;BMP_pressure;BME280_temperature;BME280_humidity;BME280_pressure;Samples;Min_cycle;Max_cycle;Signal;HPM_P1;HPM_P2
2023/01/04 00:01:04;;;;;;;12.87;11.57;;;;;;;3.28;100.00;97907.84;4977590;28;20284;-78
2023/01/04 00:03:30;;;;;;;13.90;12.23;;;;;;;3.23;100.00;97903.09;4976947;28;20267;-78
2023/01/04 00:06:01;;;;;;;13.53;12.10;;;;;;;3.24;100.00;97909.91;4977827;28;20630;-78
2023/01/04 00:08:27;;;;;;;13.10;11.80;;;;;;;3.14;100.00;97913.56;4976726;28;20208;-78
2023/01/04 00:10:52;;;;;;;13.17;11.87;;;;;;;3.00;100.00;97911.56;4975833;28;20279;-79
2023/01/04 00:13:17;;;;;;;14.53;12.90;;;;;;;3.07;100.00;97907.38;4977262;28;20272;-79
2023/01/04 00:15:43;;;;;;;14.03;12.30;;;;;;;3.12;100.00;97911.13;4977295;28;20201;-78
2023/01/04 00:18:08;;;;;;;13.47;12.07;;;;;;;3.05;100.00;97909.31;4959778;28;20189;-78
2023/01/04 00:20:33;;;;;;;14.63;13.20;;;;;;;3.13;100.00;97902.41;4960015;28;20207;-79
2023/01/04 00:22:59;;;;;;;15.57;13.47;;;;;;;3.13;100.00;97899.81;4977091;28;20189;-78
2023/01/04 00:25:24;;;;;;;15.20;13.20;;;;;;;3.14;100.00;97898.84;4977183;28;20259;-79
2023/01/04 00:27:51;;;;;;;14.23;12.30;;;;;;;3.11;100.00;97896.56;4976794;28;20206;-80
2023/01/04 00:30:17;;;;;;;14.60;13.13;;;;;;;3.16;100.00;97883.97;4977463;28;20196;-78
2023/01/04 00:32:43;;;;;;;15.33;13.70;;;;;;;3.17;100.00;97892.56;4977304;28;20193;-78
2023/01/04 00:35:09;;;;;;;14.57;12.97;;;;;;;3.12;100.00;97877.47;4976613;28;20190;-79
2023/01/04 00:37:34;;;;;;;13.73;12.33;;;;;;;3.05;100.00;97876.47;4976603;28;20192;-79
2023/01/04 00:39:59;;;;;;;14.33;12.90;;;;;;;2.96;100.00;97861.81;4959503;28;20177;-80
2023/01/04 00:42:25;;;;;;;14.37;12.87;;;;;;;2.95;100.00;97862.00;4976932;28;20194;-79
2023/01/04 00:44:50;;;;;;;12.80;11.60;;;;;;;2.87;100.00;97858.38;4976685;28;20644;-79
2023/01/04 00:47:15;;;;;;;13.43;12.17;;;;;;;2.83;100.00;97856.25;4970222;28;20184;-79
2023/01/04 00:49:41;;;;;;;12.57;11.37;;;;;;;2.80;100.00;97852.19;4976790;28;20240;-79
2023/01/04 00:52:07;;;;;;;14.97;12.37;;;;;;;2.74;100.00;97850.19;4967285;28;20254;-78
2023/01/04 00:54:32;;;;;;;13.90;12.50;;;;;;;2.73;100.00;97845.19;4968559;28;20248;-79
2023/01/04 00:56:57;;;;;;;13.30;11.77;;;;;;;2.77;100.00;97847.31;4976056;28;20188;-79
2023/01/04 00:59:23;;;;;;;14.93;13.23;;;;;;;2.74;100.00;97851.97;4976411;28;20195;-79
2023/01/04 01:01:49;;;;;;;14.47;12.67;;;;;;;2.69;100.00;97849.00;4959286;28;20200;-79
2023/01/04 01:04:17;;;;;;;15.47;13.13;;;;;;;2.65;100.00;97848.50;4976249;28;20652;-78
2023/01/04 01:06:42;;;;;;;13.63;12.23;;;;;;;2.51;100.00;97839.50;4976212;28;20240;-81
2023/01/04 01:09:08;;;;;;;14.10;12.63;;;;;;;2.53;100.00;97839.34;4976337;28;20213;-81
2023/01/04 01:11:35;;;;;;;15.93;12.53;;;;;;;2.55;100.00;97840.03;4960566;28;20180;-79
2023/01/04 01:14:01;;;;;;;15.37;13.67;;;;;;;2.53;100.00;97841.94;4976002;28;20184;-79
2023/01/04 01:16:27;;;;;;;14.97;13.37;;;;;;;2.51;100.00;97836.91;4976294;28;20196;-78
2023/01/04 01:18:52;;;;;;;14.20;12.80;;;;;;;2.56;100.00;97846.03;4976396;28;20185;-80
2023/01/04 01:21:21;;;;;;;15.33;13.73;;;;;;;2.65;100.00;97851.09;4976534;28;20181;-78
2023/01/04 01:23:47;;;;;;;15.83;14.13;;;;;;;2.66;100.00;97849.31;4976484;28;20268;-78
2023/01/04 01:26:16;;;;;;;17.03;13.80;;;;;;;2.71;100.00;97842.75;4976154;28;20356;-78
2023/01/04 01:28:42;;;;;;;14.43;12.90;;;;;;;2.77;100.00;97846.50;4976422;28;20564;-78
2023/01/04 01:31:19;;;;;;;14.53;13.03;;;;;;;2.80;100.00;97839.22;4976133;28;20189;-80
2023/01/04 01:33:46;;;;;;;14.73;12.97;;;;;;;2.82;100.00;97845.06;4976053;28;20181;-79
2023/01/04 01:36:13;;;;;;;16.90;13.40;;;;;;;2.84;100.00;97850.13;4976208;28;20195;-79
2023/01/04 01:38:39;;;;;;;16.13;13.40;;;;;;;2.75;100.00;97849.22;4976017;28;20193;-79
2023/01/04 01:41:06;;;;;;;16.23;13.10;;;;;;;2.81;100.00;97845.22;4975804;28;20196;-79
2023/01/04 01:43:51;;;;;;;15.00;13.03;;;;;;;2.84;100.00;97839.75;4975541;28;20592;-80
2023/01/04 01:46:25;;;;;;;16.10;12.97;;;;;;;2.87;100.00;97847.22;4957997;28;20188;-78
2023/01/04 01:48:55;;;;;;;15.00;13.23;;;;;;;2.83;100.00;97853.66;4975062;28;20200;-79
2023/01/04 01:51:21;;;;;;;16.13;13.50;;;;;;;2.76;100.00;97863.81;4973678;28;20185;-78
2023/01/04 01:53:52;;;;;;;14.57;13.00;;;;;;;2.79;100.00;97858.31;4975568;28;20196;-78
2023/01/04 01:56:18;;;;;;;16.33;13.57;;;;;;;2.71;100.00;97860.03;4957964;28;20225;-78
2023/01/04 01:58:51;;;;;;;15.10;13.23;;;;;;;2.69;100.00;97854.19;4939073;29;20186;-78
2023/01/04 02:01:17;;;;;;;14.60;13.10;;;;;;;2.65;100.00;97855.47;4956168;29;20181;-78
2023/01/04 02:03:42;;;;;;;15.07;13.47;;;;;;;2.63;100.00;97841.84;4954927;28;20197;-79
2023/01/04 02:06:16;;;;;;;15.13;13.07;;;;;;;2.67;100.00;97835.44;4955410;29;20186;-79
2023/01/04 02:08:42;;;;;;;15.57;13.70;;;;;;;2.61;100.00;97842.03;4955837;29;20545;-78
2023/01/04 02:11:08;;;;;;;16.03;13.73;;;;;;;2.63;100.00;97836.69;4955530;29;20213;-78
2023/01/04 02:16:41;;;;;;;16.20;13.23;;;;;;;2.59;100.00;97841.34;4956002;29;20551;-78
2023/01/04 02:19:20;;;;;;;16.47;13.67;;;;;;;2.62;100.00;97830.69;4955540;29;20220;-79
2023/01/04 02:22:09;;;;;;;16.27;13.63;;;;;;;2.63;100.00;97831.50;4956065;29;20181;-80
2023/01/04 02:25:01;;;;;;;14.97;13.20;;;;;;;2.63;100.00;97831.50;4955637;29;20487;-78
2023/01/04 02:27:48;;;;;;;13.37;11.97;;;;;;;2.64;100.00;97833.13;4955040;29;20185;-78
2023/01/04 02:30:50;;;;;;;13.70;12.30;;;;;;;2.63;100.00;97829.72;4955481;29;20189;-78
2023/01/04 02:33:49;;;;;;;13.27;11.77;;;;;;;2.60;100.00;97824.88;4954740;29;20180;-79
2023/01/04 02:37:00;;;;;;;12.93;11.43;;;;;;;2.58;100.00;97821.59;4954656;29;20197;-78
2023/01/04 02:39:35;;;;;;;13.60;12.17;;;;;;;2.63;100.00;97811.63;4877373;29;20211;-78
2023/01/04 02:42:00;;;;;;;13.97;12.13;;;;;;;2.64;100.00;97812.44;4927860;29;20559;-80
2023/01/04 02:44:52;;;;;;;14.73;11.73;;;;;;;2.71;100.00;97808.28;4949167;29;20272;-78
2023/01/04 02:50:31;;;;;;;13.80;12.33;;;;;;;2.73;100.00;97803.78;4953230;29;20196;-78
2023/01/04 02:53:10;;;;;;;15.03;12.23;;;;;;;2.73;100.00;97801.97;4955028;29;20185;-78
2023/01/04 02:55:48;;;;;;;12.37;11.07;;;;;;;2.80;100.00;97803.00;4950126;28;20628;-78
2023/01/04 02:58:16;;;;;;;12.97;10.97;;;;;;;2.81;100.00;97798.63;4974364;28;20181;-78
2023/01/04 03:07:36;;;;;;;14.50;10.73;;;;;;;2.78;100.00;97792.00;4973874;28;20733;-78
2023/01/04 03:10:08;;;;;;;15.00;11.40;;;;;;;2.72;100.00;97786.63;4971721;28;20203;-77
2023/01/04 03:12:41;;;;;;;11.73;10.53;;;;;;;2.79;100.00;97787.59;4974449;28;20187;-78
2023/01/04 03:15:21;;;;;;;12.53;10.67;;;;;;;2.79;100.00;97785.00;4974074;28;20271;-78
2023/01/04 03:18:01;;;;;;;11.67;10.47;;;;;;;2.79;100.00;97772.06;4973860;28;20255;-78
2023/01/04 03:20:29;;;;;;;11.53;10.33;;;;;;;2.80;100.00;97774.53;4974138;28;20201;-79
2023/01/04 03:37:19;;;;;;;10.77;9.67;;;;;;;2.67;100.00;97761.19;4973827;28;20237;-78
2023/01/04 03:49:13;;;;;;;12.63;9.87;;;;;;;2.66;100.00;97756.16;4973460;28;20661;-78
2023/01/04 03:51:39;;;;;;;10.57;9.37;;;;;;;2.71;100.00;97753.94;4972341;28;20666;-78
2023/01/04 03:54:14;;;;;;;11.67;10.47;;;;;;;2.74;100.00;97751.03;4973812;28;20221;-78
2023/01/04 03:56:42;;;;;;;10.83;9.17;;;;;;;2.66;100.00;97754.38;4956585;28;20176;-78
2023/01/04 03:59:08;;;;;;;10.30;9.20;;;;;;;2.73;100.00;97757.97;4973378;28;20188;-79
2023/01/04 04:01:35;;;;;;;10.20;9.17;;;;;;;2.74;100.00;97754.41;4973831;28;20192;-77
2023/01/04 04:09:29;;;;;;;10.43;9.43;;;;;;;2.86;100.00;97745.44;4972907;28;20287;-78
2023/01/04 04:11:55;;;;;;;10.03;9.13;;;;;;;2.91;100.00;97745.78;4973526;28;20283;-77
2023/01/04 04:14:20;;;;;;;9.70;8.70;;;;;;;3.00;100.00;97753.59;4972259;28;20240;-78
2023/01/04 04:16:46;;;;;;;8.93;8.13;;;;;;;3.10;100.00;97743.91;4973846;28;20192;-77
2023/01/04 04:19:11;;;;;;;10.27;8.33;;;;;;;3.13;100.00;97734.06;4973539;28;20189;-77
2023/01/04 04:21:36;;;;;;;9.37;8.57;;;;;;;3.24;100.00;97738.13;4973358;28;20683;-79
2023/01/04 04:24:02;;;;;;;8.50;7.70;;;;;;;3.25;100.00;97744.94;4973267;28;20268;-77
2023/01/04 04:26:27;;;;;;;8.17;7.37;;;;;;;3.29;100.00;97735.88;4956447;28;20188;-78
2023/01/04 04:28:53;;;;;;;8.43;7.73;;;;;;;3.36;100.00;97729.09;4976126;28;20295;-78
2023/01/04 04:31:18;;;;;;;7.93;7.23;;;;;;;3.46;100.00;97726.38;4977283;28;20192;-79
2023/01/04 04:33:43;;;;;;;9.17;8.37;;;;;;;3.57;100.00;97726.88;4977031;28;20185;-78
2023/01/04 04:36:09;;;;;;;7.93;7.33;;;;;;;3.68;100.00;97730.94;4977121;28;20185;-82
2023/01/04 04:38:34;;;;;;;7.30;6.60;;;;;;;3.69;100.00;97717.84;4977023;28;20243;-80
2023/01/04 04:44:00;;;;;;;7.60;7.00;;;;;;;3.67;100.00;97718.97;4954010;28;20193;-78
2023/01/04 04:46:26;;;;;;;7.03;6.33;;;;;;;3.72;100.00;97721.91;4976237;28;20284;-78
2023/01/04 04:48:51;;;;;;;7.57;6.97;;;;;;;3.64;100.00;97722.69;4976847;28;20236;-83
2023/01/04 04:51:16;;;;;;;8.37;7.63;;;;;;;3.71;100.00;97722.88;4975688;28;20193;-79
2023/01/04 04:53:42;;;;;;;7.90;7.20;;;;;;;3.80;100.00;97729.69;4976593;28;20197;-79
2023/01/04 04:56:08;;;;;;;6.73;6.23;;;;;;;3.80;100.00;97721.09;4958134;28;20315;-79
2023/01/04 04:58:33;;;;;;;6.90;6.30;;;;;;;3.85;100.00;97722.22;4976899;28;20554;-79
2023/01/04 05:00:58;;;;;;;6.77;6.17;;;;;;;3.83;100.00;97723.38;4976308;28;20248;-79
2023/01/04 05:03:24;;;;;;;6.67;6.17;;;;;;;3.84;100.00;97712.84;4976172;28;20180;-79
2023/01/04 05:05:49;;;;;;;6.87;6.37;;;;;;;3.79;100.00;97714.31;4976224;28;20208;-79
2023/01/04 05:08:15;;;;;;;8.20;7.60;;;;;;;3.91;100.00;97705.22;4976414;28;20205;-78
2023/01/04 05:10:40;;;;;;;7.17;6.67;;;;;;;3.94;100.00;97703.13;4976357;28;20208;-79
2023/01/04 05:13:09;;;;;;;6.93;6.43;;;;;;;4.04;100.00;97708.94;4976015;28;20185;-80
2023/01/04 05:15:37;;;;;;;6.20;5.73;;;;;;;4.00;100.00;97714.63;4976687;28;20177;-79
2023/01/04 05:18:04;;;;;;;6.63;6.07;;;;;;;4.08;100.00;97712.00;4976245;28;20228;-79
2023/01/04 05:20:30;;;;;;;6.67;6.17;;;;;;;4.12;100.00;97713.34;4976354;28;20240;-78
2023/01/04 05:22:55;;;;;;;6.40;5.90;;;;;;;4.06;100.00;97716.56;4976031;28;20189;-79
2023/01/04 05:25:21;;;;;;;6.80;6.20;;;;;;;4.10;100.00;97715.28;4975609;28;20667;-79
2023/01/04 05:27:47;;;;;;;6.37;5.87;;;;;;;4.03;100.00;97722.88;4975609;28;20548;-78
2023/01/04 05:32:58;;;;;;;5.87;5.37;;;;;;;4.16;100.00;97715.44;4976313;28;20654;-78
2023/01/04 05:35:24;;;;;;;7.00;6.20;;;;;;;4.18;100.00;97713.47;4975418;28;20185;-78
2023/01/04 05:37:49;;;;;;;6.10;5.50;;;;;;;4.25;100.00;97713.63;4975777;28;20648;-79
2023/01/04 05:40:15;;;;;;;5.97;5.47;;;;;;;4.31;100.00;97709.56;4974998;28;20180;-78
2023/01/04 05:42:40;;;;;;;5.80;5.13;;;;;;;4.25;100.00;97708.44;4957902;28;20193;-79
2023/01/04 05:45:06;;;;;;;5.20;4.80;;;;;;;4.31;100.00;97700.00;4974808;28;20675;-80
2023/01/04 05:47:32;;;;;;;5.10;4.80;;;;;;;4.37;100.00;97701.13;4961079;28;20546;-79
2023/01/04 05:49:57;;;;;;;5.63;5.23;;;;;;;4.33;100.00;97707.63;4974622;28;20252;-80
2023/01/04 05:52:23;;;;;;;6.30;5.77;;;;;;;4.41;100.00;97702.41;4958621;28;20663;-79
2023/01/04 05:54:49;;;;;;;5.70;5.20;;;;;;;4.41;100.00;97702.41;4969370;28;20767;-79
2023/01/04 05:57:15;;;;;;;5.47;5.07;;;;;;;4.47;100.00;97702.56;4956175;29;20214;-79
2023/01/04 05:59:40;;;;;;;5.63;5.23;;;;;;;4.46;100.00;97700.13;4956766;29;20189;-79
2023/01/04 06:02:07;;;;;;;6.37;5.33;;;;;;;4.48;100.00;97705.97;4938991;29;20236;-81
2023/01/04 06:04:32;;;;;;;7.10;5.33;;;;;;;4.50;100.00;97691.88;4955748;29;20193;-80
2023/01/04 06:06:58;;;;;;;5.63;5.23;;;;;;;4.52;100.00;97692.50;4938682;29;20193;-79
2023/01/04 06:09:26;;;;;;;6.47;5.97;;;;;;;4.53;100.00;97688.13;4955853;29;20695;-80
2023/01/04 06:11:52;;;;;;;7.27;6.77;;;;;;;4.50;100.00;97691.06;4956704;29;20178;-79
2023/01/04 06:14:17;;;;;;;6.87;6.40;;;;;;;4.54;100.00;97698.34;4956298;29;20550;-79
2023/01/04 06:16:42;;;;;;;6.30;5.90;;;;;;;4.59;100.00;97690.03;4956034;29;20209;-80
2023/01/04 06:19:08;;;;;;;6.60;6.13;;;;;;;4.55;100.00;97674.00;4955934;29;20273;-80
2023/01/04 06:21:33;;;;;;;7.33;6.83;;;;;;;4.55;100.00;97674.00;4955532;29;20186;-80
2023/01/04 06:23:58;;;;;;;7.27;6.60;;;;;;;4.57;100.00;97671.22;4955555;29;20193;-79
2023/01/04 06:26:24;;;;;;;6.50;6.10;;;;;;;4.56;100.00;97683.41;4955677;29;20186;-79
2023/01/04 06:28:49;;;;;;;6.70;6.10;;;;;;;4.67;100.00;97681.44;4955478;29;20286;-79
2023/01/04 06:31:15;;;;;;;6.10;5.67;;;;;;;4.69;100.00;97675.09;4954903;29;20248;-79
2023/01/04 06:33:40;;;;;;;5.90;5.50;;;;;;;4.68;100.00;97670.88;4954437;29;20181;-79
2023/01/04 06:36:06;;;;;;;5.80;5.30;;;;;;;4.76;100.00;97677.81;4955297;29;20260;-79
2023/01/04 06:38:32;;;;;;;5.50;5.10;;;;;;;4.82;100.00;97670.19;4955164;29;20190;-79
2023/01/04 06:40:58;;;;;;;5.87;5.47;;;;;;;4.82;100.00;97685.75;4955362;29;20203;-81
2023/01/04 06:43:24;;;;;;;5.57;5.07;;;;;;;4.78;100.00;97676.69;4954888;29;20273;-79
2023/01/04 06:45:49;;;;;;;5.70;5.30;;;;;;;4.81;100.00;97680.72;4952088;28;20276;-75
2023/01/04 06:48:15;;;;;;;6.20;5.80;;;;;;;4.77;100.00;97680.25;4952871;29;20341;-76
2023/01/04 06:50:42;;;;;;;6.53;6.03;;;;;;;4.90;100.00;97679.75;4937537;29;20226;-77
2023/01/04 06:53:08;;;;;;;5.97;5.57;;;;;;;4.90;100.00;97680.50;4955506;29;20200;-77
2023/01/04 06:55:33;;;;;;;5.80;5.30;;;;;;;4.94;100.00;97686.22;4955011;28;20633;-76
2023/01/04 06:57:58;;;;;;;6.73;6.33;;;;;;;4.99;100.00;97684.72;4954813;29;20268;-76
2023/01/04 07:00:24;;;;;;;7.97;7.37;;;;;;;5.00;100.00;97688.94;4955036;29;20196;-76
2023/01/04 07:02:49;;;;;;;7.60;7.00;;;;;;;5.04;100.00;97692.00;4954783;29;20577;-77
2023/01/04 07:05:15;;;;;;;6.57;6.17;;;;;;;4.98;100.00;97684.88;4954994;29;20188;-76
2023/01/04 07:07:40;;;;;;;9.53;8.93;;;;;;;4.97;100.00;97681.47;4954525;29;20192;-76
2023/01/04 07:10:06;;;;;;;10.63;10.00;;;;;;;5.12;100.00;97680.78;4954938;29;20189;-77
2023/01/04 07:12:32;;;;;;;11.03;10.33;;;;;;;5.21;100.00;97683.16;4954557;29;20548;-77
2023/01/04 07:14:57;;;;;;;8.90;8.40;;;;;;;5.09;100.00;97694.09;4937747;29;20629;-76
2023/01/04 07:17:23;;;;;;;6.90;6.30;;;;;;;5.03;100.00;97698.16;4954773;29;20185;-77
2023/01/04 07:19:48;;;;;;;5.37;4.97;;;;;;;5.11;100.00;97689.53;4954246;29;20192;-77
2023/01/04 07:22:13;;;;;;;6.20;5.77;;;;;;;5.09;100.00;97687.09;4954542;29;20193;-76
2023/01/04 07:24:39;;;;;;;6.50;6.07;;;;;;;5.13;100.00;97683.19;4954873;29;20189;-76
2023/01/04 07:27:04;;;;;;;7.13;6.63;;;;;;;5.14;100.00;97660.59;4954461;29;20181;-76
2023/01/04 07:29:29;;;;;;;8.60;8.00;;;;;;;5.17;100.00;97665.47;4953804;29;20221;-77
2023/01/04 07:31:55;;;;;;;9.13;8.43;;;;;;;5.19;100.00;97664.31;4953807;29;20559;-76
2023/01/04 07:34:23;;;;;;;8.80;8.30;;;;;;;5.19;100.00;97663.50;4954640;29;20268;-76
2023/01/04 07:36:49;;;;;;;6.80;6.40;;;;;;;5.17;100.00;97674.09;4954211;29;20189;-77
2023/01/04 07:39:18;;;;;;;6.97;6.47;;;;;;;5.21;100.00;97664.97;4954641;29;20268;-76
2023/01/04 07:41:44;;;;;;;6.20;5.70;;;;;;;5.31;100.00;97670.75;4953165;29;20195;-76
2023/01/04 07:44:10;;;;;;;5.70;5.30;;;;;;;5.32;100.00;97668.97;4954128;29;20856;-76
2023/01/04 07:46:36;;;;;;;6.97;6.57;;;;;;;5.26;100.00;97659.25;4954206;28;20189;-76
2023/01/04 07:49:02;;;;;;;5.63;5.33;;;;;;;5.17;100.00;97661.09;4952654;29;20211;-76
2023/01/04 07:51:30;;;;;;;7.50;7.00;;;;;;;5.10;100.00;97643.75;4954066;29;20297;-76
2023/01/04 07:53:55;;;;;;;7.83;7.33;;;;;;;5.18;100.00;97656.72;4954593;29;20208;-76
2023/01/04 07:56:20;;;;;;;8.70;8.10;;;;;;;5.16;100.00;97643.88;4953787;28;20304;-76
2023/01/04 07:58:45;;;;;;;6.37;6.00;;;;;;;5.12;100.00;97639.19;4937459;29;20231;-75
2023/01/04 08:01:14;;;;;;;5.10;4.80;;;;;;;5.17;100.00;97640.31;4954326;29;20216;-77
2023/01/04 08:03:40;;;;;;;6.17;4.60;;;;;;;5.10;100.00;97636.75;4956570;28;20189;-77
2023/01/04 08:06:11;;;;;;;5.33;5.00;;;;;;;5.16;100.00;97638.69;4958415;29;20390;-76
2023/01/04 08:08:36;;;;;;;4.67;4.37;;;;;;;5.23;100.00;97639.63;4941143;29;20244;-76
2023/01/04 08:11:03;;;;;;;4.53;4.23;;;;;;;5.18;100.00;97641.94;4957646;29;20186;-76
2023/01/04 08:13:28;;;;;;;18.40;17.33;;;;;;;5.25;100.00;97636.84;4957457;29;20213;-76
2023/01/04 08:15:54;;;;;;;4.97;4.67;;;;;;;5.26;100.00;97639.25;4940783;29;20220;-76
2023/01/04 08:18:19;;;;;;;4.27;3.97;;;;;;;5.21;100.00;97632.97;4957563;29;20217;-76
2023/01/04 08:20:45;;;;;;;4.57;4.17;;;;;;;5.31;100.00;97631.75;4957245;29;20189;-77
2023/01/04 08:23:10;;;;;;;11.90;11.30;;;;;;;5.26;100.00;97622.84;4957553;29;20524;-76
2023/01/04 08:25:36;;;;;;;16.93;15.77;;;;;;;5.25;100.00;97618.63;4953439;29;20249;-76
2023/01/04 08:28:01;;;;;;;9.83;9.33;;;;;;;5.18;100.00;97621.16;4941146;29;20293;-76
2023/01/04 08:30:26;;;;;;;4.97;4.67;;;;;;;5.22;100.00;97613.81;4942379;29;20219;-76
2023/01/04 08:32:54;;;;;;;4.70;4.37;;;;;;;5.21;100.00;97614.78;4940560;29;20188;-76
2023/01/04 08:35:20;;;;;;;5.10;4.80;;;;;;;5.26;100.00;97615.88;4957714;29;20178;-76
2023/01/04 08:37:46;;;;;;;4.70;4.40;;;;;;;5.34;100.00;97622.81;4940493;29;20195;-76
2023/01/04 08:40:11;;;;;;;5.00;4.60;;;;;;;5.23;100.00;97618.03;4957636;29;20915;-77
2023/01/04 08:42:37;;;;;;;6.27;5.80;;;;;;;5.37;100.00;97617.25;4940796;29;20633;-76
2023/01/04 08:45:03;;;;;;;4.40;4.07;;;;;;;5.37;100.00;97620.69;4957092;28;20664;-75
2023/01/04 08:47:30;;;;;;;7.63;7.23;;;;;;;5.44;100.00;97611.22;4955483;29;20711;-75
2023/01/04 08:49:56;;;;;;;4.93;4.63;;;;;;;5.50;100.00;97609.72;4957690;29;20209;-74
2023/01/04 08:52:21;;;;;;;4.83;4.53;;;;;;;5.40;100.00;97609.94;4957550;29;20540;-75
2023/01/04 08:54:48;;;;;;;4.37;4.07;;;;;;;5.46;100.00;97600.66;4954646;29;20226;-75
2023/01/04 08:57:15;;;;;;;4.47;4.03;;;;;;;5.49;100.00;97589.06;4957147;29;20296;-75
2023/01/04 08:59:40;;;;;;;7.57;4.60;;;;;;;5.56;100.00;97582.19;4957959;29;20202;-75
2023/01/04 09:02:24;;;;;;;6.53;6.03;;;;;;;5.54;100.00;97582.38;4957181;29;20173;-75
2023/01/04 09:04:49;;;;;;;9.47;8.77;;;;;;;5.62;100.00;97571.91;4968463;28;20323;-75
2023/01/04 09:07:15;;;;;;;5.63;5.33;;;;;;;5.76;100.00;97578.94;4976411;28;20269;-75
2023/01/04 09:09:41;;;;;;;5.97;5.67;;;;;;;5.79;100.00;97581.19;4976222;28;20220;-75
2023/01/04 09:12:07;;;;;;;5.60;5.30;;;;;;;5.88;100.00;97589.75;4975618;28;20574;-75
2023/01/04 09:14:33;;;;;;;4.73;4.53;;;;;;;5.83;100.00;97589.44;4976156;28;20203;-75
2023/01/04 09:16:59;;;;;;;4.73;4.53;;;;;;;5.88;100.00;97589.75;4976119;28;20184;-75
2023/01/04 09:19:24;;;;;;;4.20;3.93;;;;;;;5.89;100.00;97591.38;4976256;28;20185;-75
2023/01/04 09:21:52;;;;;;;3.73;3.53;;;;;;;5.90;100.00;97590.38;4975955;28;20177;-76
2023/01/04 09:24:18;;;;;;;3.97;3.77;;;;;;;5.96;100.00;97581.06;4976277;28;20176;-75
2023/01/04 09:26:46;;;;;;;4.07;3.87;;;;;;;6.02;100.00;97585.56;4951507;29;20214;-75
2023/01/04 09:29:11;;;;;;;4.17;3.83;;;;;;;5.98;100.00;97587.69;4966062;28;20208;-75
2023/01/04 09:31:36;;;;;;;4.73;4.53;;;;;;;6.03;100.00;97580.16;4975627;28;20188;-75
2023/01/04 09:34:02;;;;;;;5.83;5.53;;;;;;;6.14;100.00;97592.72;4975551;28;20200;-77
2023/01/04 09:36:27;;;;;;;7.93;7.40;;;;;;;6.26;100.00;97593.09;4975150;28;20192;-75
2023/01/04 09:38:54;;;;;;;6.30;6.00;;;;;;;6.40;100.00;97599.31;4975882;28;20195;-76
2023/01/04 09:41:31;;;;;;;11.77;11.07;;;;;;;6.41;100.00;97599.09;4975757;28;20177;-75
2023/01/04 09:44:13;;;;;;;6.40;6.00;;;;;;;6.39;100.00;97601.09;4975798;28;20176;-75
2023/01/04 09:46:47;;;;;;;4.60;4.40;;;;;;;6.52;100.00;97595.25;4974903;28;20188;-75
2023/01/04 09:49:15;;;;;;;4.90;4.47;;;;;;;6.53;100.00;97596.84;4975274;28;20197;-75
2023/01/04 09:51:47;;;;;;;5.63;5.30;;;;;;;6.57;100.00;97600.72;4975662;28;20176;-75
2023/01/04 09:54:19;;;;;;;4.67;4.40;;;;;;;6.66;100.00;97605.66;4975439;28;20188;-75
2023/01/04 09:56:54;;;;;;;4.63;4.33;;;;;;;6.60;100.00;97602.97;4975296;28;20205;-79
2023/01/04 09:59:25;;;;;;;5.03;4.43;;;;;;;6.61;100.00;97597.59;4939078;29;20181;-75
2023/01/04 10:01:57;;;;;;;5.60;5.37;;;;;;;6.69;100.00;97596.66;4956391;29;20173;-75
2023/01/04 10:04:31;;;;;;;4.87;4.60;;;;;;;6.71;100.00;97606.91;4956010;29;20186;-75
2023/01/04 10:06:57;;;;;;;5.63;5.30;;;;;;;6.82;100.00;97601.22;4955748;29;20539;-76
2023/01/04 10:09:22;;;;;;;4.13;3.83;;;;;;;6.78;99.74;97586.94;4955924;29;20212;-76
2023/01/04 10:12:15;;;;;;;4.83;4.53;;;;;;;6.80;99.73;97577.16;4965516;28;20176;-77
2023/01/04 10:14:56;;;;;;;4.40;4.10;;;;;;;6.81;100.00;97570.94;4957901;28;20185;-75
2023/01/04 10:17:35;;;;;;;4.07;3.80;;;;;;;6.91;99.71;97574.09;4974983;28;20173;-76
2023/01/04 10:20:24;;;;;;;5.63;5.20;;;;;;;6.86;99.66;97569.41;4974868;28;20173;-75
2023/01/04 10:22:59;;;;;;;5.33;5.03;;;;;;;6.84;100.00;97565.38;4975073;28;20173;-75
2023/01/04 10:25:52;;;;;;;5.60;5.13;;;;;;;6.85;99.79;97557.38;4974698;28;20188;-75
2023/01/04 10:28:36;;;;;;;4.10;3.90;;;;;;;6.89;98.99;97544.78;4974920;28;20252;-75
2023/01/04 10:31:07;;;;;;;4.30;4.00;;;;;;;6.78;99.16;97543.47;4974966;28;20698;-75
2023/01/04 10:33:38;;;;;;;4.83;3.13;;;;;;;6.88;100.00;97557.00;4974902;28;20173;-75
2023/01/04 10:36:14;;;;;;;4.60;3.03;;;;;;;6.85;99.85;97546.16;4974579;28;20674;-75
2023/01/04 10:38:41;;;;;;;3.80;3.60;;;;;;;6.87;100.00;97547.56;4974527;28;20207;-75
2023/01/04 10:41:12;;;;;;;5.50;3.50;;;;;;;6.89;99.29;97544.78;4974367;28;20553;-75
2023/01/04 10:44:12;;;;;;;3.17;3.07;;;;;;;6.97;99.45;97542.06;4974604;28;20675;-75
2023/01/04 10:47:02;;;;;;;3.03;2.90;;;;;;;7.05;99.94;97536.75;4944728;28;20288;-76
2023/01/04 10:49:38;;;;;;;4.20;4.00;;;;;;;7.12;98.68;97544.63;4974519;28;20199;-75
2023/01/04 10:52:13;;;;;;;5.10;4.90;;;;;;;7.19;97.91;97533.25;4975157;28;20646;-75
2023/01/04 10:55:06;;;;;;;4.53;4.23;;;;;;;7.27;97.10;97527.13;4974888;28;20274;-75
2023/01/04 10:57:54;;;;;;;5.17;4.53;;;;;;;7.35;97.13;97537.44;4923434;29;20170;-75
2023/01/04 11:00:38;;;;;;;4.40;4.07;;;;;;;7.43;97.35;97537.28;4955396;29;20193;-75
2023/01/04 11:03:36;;;;;;;4.40;4.10;;;;;;;7.42;97.71;97538.28;4954799;29;20176;-75
2023/01/04 11:06:37;;;;;;;4.10;3.90;;;;;;;7.43;97.27;97529.47;4951324;29;20228;-76
2023/01/04 11:09:07;;;;;;;4.53;4.23;;;;;;;7.56;96.30;97528.75;4877250;29;20219;-75
2023/01/04 11:11:40;;;;;;;6.30;6.00;;;;;;;7.57;96.23;97515.53;4929705;28;20280;-76
2023/01/04 11:14:06;;;;;;;4.17;3.97;;;;;;;7.62;97.01;97521.00;4974099;28;20651;-75
2023/01/04 11:16:32;;;;;;;9.30;8.83;;;;;;;7.52;96.22;97512.69;4956834;28;20695;-77
2023/01/04 11:18:57;;;;;;;7.43;7.03;;;;;;;7.66;95.68;97518.81;4974118;28;20541;-75
2023/01/04 11:21:32;;;;;;;7.07;6.67;;;;;;;7.72;95.05;97510.22;4974228;28;20267;-75
2023/01/04 11:24:00;;;;;;;6.43;5.83;;;;;;;7.76;94.81;97509.63;4974018;28;20200;-75
2023/01/04 11:26:34;;;;;;;8.57;8.17;;;;;;;7.73;95.39;97507.44;4957073;28;20176;-75
2023/01/04 11:29:05;;;;;;;6.17;5.87;;;;;;;7.78;95.07;97507.66;4974286;28;20199;-75
2023/01/04 11:31:55;;;;;;;6.07;5.77;;;;;;;7.75;95.30;97491.56;4955072;29;20213;-75
2023/01/04 11:34:53;;;;;;;5.53;5.13;;;;;;;7.73;95.66;97483.94;4937946;29;20249;-75
2023/01/04 11:37:32;;;;;;;6.97;6.57;;;;;;;7.81;94.67;97482.97;4953386;29;20174;-75
2023/01/04 11:40:16;;;;;;;5.67;5.33;;;;;;;7.88;94.33;97482.03;4960656;28;20208;-76
2023/01/04 11:42:47;;;;;;;6.93;6.63;;;;;;;7.82;94.99;97482.78;4973561;28;20636;-76
2023/01/04 11:45:20;;;;;;;4.23;4.03;;;;;;;7.94;95.67;97493.50;4973060;28;20209;-75
2023/01/04 11:47:48;;;;;;;6.40;6.00;;;;;;;7.97;94.12;97492.31;4972087;28;20189;-75
2023/01/04 11:50:34;;;;;;;5.60;5.37;;;;;;;7.83;95.03;97481.78;4973873;28;20180;-75
2023/01/04 11:52:59;;;;;;;5.63;5.23;;;;;;;7.90;95.32;97480.03;4973128;28;20195;-75
2023/01/04 11:55:29;;;;;;;4.27;4.07;;;;;;;7.89;95.56;97488.03;4973374;28;20311;-74
2023/01/04 11:58:12;;;;;;;3.90;3.63;;;;;;;7.95;96.03;97484.66;4973716;28;20173;-75
2023/01/04 12:00:48;;;;;;;3.43;3.33;;;;;;;7.95;95.80;97487.28;4978017;28;20184;-74
2023/01/04 12:03:16;;;;;;;4.10;3.90;;;;;;;7.94;95.74;97476.03;4973609;28;20196;-76
2023/01/04 12:05:42;;;;;;;3.37;3.23;;;;;;;8.07;95.63;97496.19;4974117;28;20196;-75
2023/01/04 12:08:35;;;;;;;3.90;3.60;;;;;;;7.99;96.26;97485.88;4973907;28;20208;-75
2023/01/04 12:11:04;;;;;;;3.53;3.33;;;;;;;8.06;96.21;97494.56;4973716;28;20184;-75
2023/01/04 12:13:32;;;;;;;3.43;3.23;;;;;;;8.06;96.02;97494.56;4973138;28;20197;-75
2023/01/04 12:16:12;;;;;;;3.83;3.50;;;;;;;8.00;96.65;97492.72;4973244;28;20718;-79
2023/01/04 12:18:43;;;;;;;3.67;3.47;;;;;;;8.11;97.05;97494.00;4973736;28;20224;-75
2023/01/04 12:21:26;;;;;;;3.93;3.63;;;;;;;8.10;97.29;97482.75;4973580;28;20176;-76
2023/01/04 12:23:54;;;;;;;4.50;4.20;;;;;;;8.19;96.96;97489.41;4956212;28;20703;-76
2023/01/04 12:26:22;;;;;;;4.13;3.73;;;;;;;8.10;97.10;97489.75;4973498;28;20308;-75
2023/01/04 12:28:52;;;;;;;4.60;4.30;;;;;;;8.11;97.60;97473.09;4956216;28;20205;-75